Aérodrome :
LOGIN :

S'inscrire | Disclaimer

   EN    FR    IT 

 










Légende :    VFR   VFR Marginal   IFR   IFR Intensif   IFR Très Intensif
Visi : 
Plafond : 
>= 8 km
>= 3000ft
5 à 8 km
1000 à 3000 ft
1500m à 5 km
500 à 1000 ft
800 à 1500m
200 à 500 ft
< 800m
< 200 ft
Symboles :   Orages  Brouillard  Fortes neiges  Fortes précipitations  Vent > 20 kt
SIGMETs :   Divers  Orages  Givrage  Turbulence  Onde Orograph.  Cendres Volcan.







- Altitude de l'aérodrome : 56 ft
- Code IATA : BZR
- Voir les cartes d'approche


LFMU - Beziers / Vias

DERNIER METAR :
  • 222000Z AUTO VRB01KT CAVOK 23/20 Q1015 NOSIG

METARs EXPIRÉS :
  • 221930Z AUTO VRB03KT CAVOK 23/20 Q1015 NOSIG
  • 221900Z AUTO 18003KT 150V220 CAVOK 24/20 Q1015 NOSIG
  • 221830Z AUTO 20006KT 170V240 CAVOK 24/20 Q1014 NOSIG
  • 221800Z AUTO 17005KT 150V210 CAVOK 25/20 Q1014 NOSIG
  • 221730Z AUTO 18005KT 130V240 CAVOK 25/20 Q1014 NOSIG

TAF TAF LFMU
Valide du 22 à 15h jusqu'au 23 à 15h UTC


221400Z 2215/2315 17010KT CAVOK
TEMPO 2219/2303 VRB05KT
BECMG 2303/2306 31010KT
ATIS : +33 4 67 90 88 88
Pas de NOTAMs connus pour ce terrain.
2 SIGMETs publiés pour la FIR Marseille (LFMM) :
 
Orages noyés dans la masse
LFMM SIGMET 5 VALID 222000/222200 LFPW
LFMM MARSEILLE FIR/UIR EMBD TS FCST WI N4630 E00400 - N4630 E00700 - N4515 E00700 - N4430 E00330 TOP FL380 MOV NE 25KT NC=
Orages noyés dans la masse
LFMM SIGMET 4 VALID 221800/222000 LFPW
LFMM MARSEILLE FIR/UIR EMBD TS FCST WI N4630 E00345 - N4630 E00700 - N4500 E00700 - N4430 E00345 TOP FL400 MOV NE 15KT NC=



MET'MAP, la Météo Aéronautique d'un coup d'oeil ! - Copyright ORBIFLY Décembre 2007 - Disclaimer

ORBIFLY MET'MAP TEAM :

Programmation & Développement : Alexandra Zaïnal
Conception & Développement : Baudouin d'Aumeries
Co-Programmation & Développement : Marc-Olivier Méhu
Soutien technique & logistique : Manuel Goepfert

Contact : metmap@orbifly.com




SOURCES & CREDITS :

   NOAA